sensor_id;sensor_type;location;lat;lon;timestamp;temperature;humidity
35920;DHT22;36160;53.370;-6.196;2022-11-20T00:01:19;7.80;99.90
35920;DHT22;36160;53.370;-6.196;2022-11-20T00:03:46;7.80;99.90
35920;DHT22;36160;53.370;-6.196;2022-11-20T00:06:14;7.80;99.90
35920;DHT22;36160;53.370;-6.196;2022-11-20T00:08:41;7.80;99.90
35920;DHT22;36160;53.370;-6.196;2022-11-20T00:11:09;7.80;99.90
35920;DHT22;36160;53.370;-6.196;2022-11-20T00:13:35;7.80;99.90
35920;DHT22;36160;53.370;-6.196;2022-11-20T00:16:04;7.80;99.90
35920;DHT22;36160;53.370;-6.196;2022-11-20T00:18:32;7.80;99.90
35920;DHT22;36160;53.370;-6.196;2022-11-20T00:21:44;7.80;99.90
35920;DHT22;36160;53.370;-6.196;2022-11-20T00:23:53;7.80;99.90
35920;DHT22;36160;53.370;-6.196;2022-11-20T00:26:20;7.80;99.90
35920;DHT22;36160;53.370;-6.196;2022-11-20T00:29:04;7.80;99.90
35920;DHT22;36160;53.370;-6.196;2022-11-20T00:31:30;7.70;99.90
35920;DHT22;36160;53.370;-6.196;2022-11-20T00:33:58;7.70;99.90
35920;DHT22;36160;53.370;-6.196;2022-11-20T00:36:26;7.60;99.90
35920;DHT22;36160;53.370;-6.196;2022-11-20T00:38:54;7.60;99.90
35920;DHT22;36160;53.370;-6.196;2022-11-20T00:41:20;7.70;99.90
35920;DHT22;36160;53.370;-6.196;2022-11-20T00:43:46;7.60;99.90
35920;DHT22;36160;53.370;-6.196;2022-11-20T00:46:19;7.60;99.90
35920;DHT22;36160;53.370;-6.196;2022-11-20T00:48:46;7.50;99.90
35920;DHT22;36160;53.370;-6.196;2022-11-20T00:51:14;7.50;99.90
35920;DHT22;36160;53.370;-6.196;2022-11-20T00:53:40;7.40;99.90
35920;DHT22;36160;53.370;-6.196;2022-11-20T00:56:07;7.40;99.90
35920;DHT22;36160;53.370;-6.196;2022-11-20T00:58:37;7.40;99.90
35920;DHT22;36160;53.370;-6.196;2022-11-20T01:01:08;7.40;99.90
35920;DHT22;36160;53.370;-6.196;2022-11-20T01:03:36;7.40;99.90
35920;DHT22;36160;53.370;-6.196;2022-11-20T01:06:33;7.30;99.90
35920;DHT22;36160;53.370;-6.196;2022-11-20T01:09:01;7.30;99.90
35920;DHT22;36160;53.370;-6.196;2022-11-20T01:11:32;7.40;99.90
35920;DHT22;36160;53.370;-6.196;2022-11-20T01:13:59;7.30;99.90
35920;DHT22;36160;53.370;-6.196;2022-11-20T01:16:31;7.30;99.90
35920;DHT22;36160;53.370;-6.196;2022-11-20T01:18:59;7.40;99.90
35920;DHT22;36160;53.370;-6.196;2022-11-20T01:21:31;7.30;99.90
35920;DHT22;36160;53.370;-6.196;2022-11-20T01:23:57;7.40;99.90
35920;DHT22;36160;53.370;-6.196;2022-11-20T01:26:27;7.40;99.90
35920;DHT22;36160;53.370;-6.196;2022-11-20T01:28:54;7.40;99.90
35920;DHT22;36160;53.370;-6.196;2022-11-20T01:31:22;7.40;99.90
35920;DHT22;36160;53.370;-6.196;2022-11-20T01:33:51;7.40;99.90
35920;DHT22;36160;53.370;-6.196;2022-11-20T01:36:18;7.40;99.90
35920;DHT22;36160;53.370;-6.196;2022-11-20T01:38:44;7.30;99.90
35920;DHT22;36160;53.370;-6.196;2022-11-20T01:41:12;7.30;99.90
35920;DHT22;36160;53.370;-6.196;2022-11-20T01:43:58;7.30;99.90
35920;DHT22;36160;53.370;-6.196;2022-11-20T01:46:24;7.30;99.90
35920;DHT22;36160;53.370;-6.196;2022-11-20T01:51:33;7.30;99.90
35920;DHT22;36160;53.370;-6.196;2022-11-20T01:54:03;7.30;99.90
35920;DHT22;36160;53.370;-6.196;2022-11-20T01:56:32;7.30;99.90
35920;DHT22;36160;53.370;-6.196;2022-11-20T01:59:00;7.30;99.90
35920;DHT22;36160;53.370;-6.196;2022-11-20T02:01:27;7.30;99.90
35920;DHT22;36160;53.370;-6.196;2022-11-20T02:03:53;7.30;99.90
35920;DHT22;36160;53.370;-6.196;2022-11-20T02:08:51;7.30;99.90
35920;DHT22;36160;53.370;-6.196;2022-11-20T02:11:17;7.20;99.90
35920;DHT22;36160;53.370;-6.196;2022-11-20T02:13:43;7.20;99.90
35920;DHT22;36160;53.370;-6.196;2022-11-20T02:16:27;7.30;99.90
35920;DHT22;36160;53.370;-6.196;2022-11-20T02:18:55;7.30;99.90
35920;DHT22;36160;53.370;-6.196;2022-11-20T02:21:43;7.30;99.90
35920;DHT22;36160;53.370;-6.196;2022-11-20T02:24:19;7.20;99.90
35920;DHT22;36160;53.370;-6.196;2022-11-20T02:26:51;7.30;99.90
35920;DHT22;36160;53.370;-6.196;2022-11-20T02:29:19;7.30;99.90
35920;DHT22;36160;53.370;-6.196;2022-11-20T02:31:48;7.30;99.90
35920;DHT22;36160;53.370;-6.196;2022-11-20T02:34:14;7.30;99.90
35920;DHT22;36160;53.370;-6.196;2022-11-20T02:36:40;7.30;99.90
35920;DHT22;36160;53.370;-6.196;2022-11-20T02:39:07;7.30;99.90
35920;DHT22;36160;53.370;-6.196;2022-11-20T02:41:36;7.40;99.90
35920;DHT22;36160;53.370;-6.196;2022-11-20T02:44:03;7.40;99.90
35920;DHT22;36160;53.370;-6.196;2022-11-20T02:46:30;7.40;99.90
35920;DHT22;36160;53.370;-6.196;2022-11-20T02:48:56;7.50;99.90
35920;DHT22;36160;53.370;-6.196;2022-11-20T02:51:22;7.50;99.90
35920;DHT22;36160;53.370;-6.196;2022-11-20T02:53:47;7.50;99.90
35920;DHT22;36160;53.370;-6.196;2022-11-20T02:56:13;7.50;99.90
35920;DHT22;36160;53.370;-6.196;2022-11-20T02:58:39;7.50;99.90
35920;DHT22;36160;53.370;-6.196;2022-11-20T03:01:05;7.50;99.90
35920;DHT22;36160;53.370;-6.196;2022-11-20T03:03:30;7.40;99.90
35920;DHT22;36160;53.370;-6.196;2022-11-20T03:05:58;7.40;99.90
35920;DHT22;36160;53.370;-6.196;2022-11-20T03:08:24;7.30;99.90
35920;DHT22;36160;53.370;-6.196;2022-11-20T03:10:51;7.20;99.90
35920;DHT22;36160;53.370;-6.196;2022-11-20T03:13:17;7.20;99.90
35920;DHT22;36160;53.370;-6.196;2022-11-20T03:15:43;7.10;99.90
35920;DHT22;36160;53.370;-6.196;2022-11-20T03:18:08;7.00;99.90
35920;DHT22;36160;53.370;-6.196;2022-11-20T03:20:34;7.00;99.90
35920;DHT22;36160;53.370;-6.196;2022-11-20T03:23:00;6.90;99.90
35920;DHT22;36160;53.370;-6.196;2022-11-20T03:25:25;6.80;99.90
35920;DHT22;36160;53.370;-6.196;2022-11-20T03:27:51;6.80;99.90
35920;DHT22;36160;53.370;-6.196;2022-11-20T03:30:17;6.70;99.90
35920;DHT22;36160;53.370;-6.196;2022-11-20T03:32:43;6.60;99.90
35920;DHT22;36160;53.370;-6.196;2022-11-20T03:35:09;6.70;99.90
35920;DHT22;36160;53.370;-6.196;2022-11-20T03:37:34;6.70;99.90
35920;DHT22;36160;53.370;-6.196;2022-11-20T03:40:00;6.60;99.90
35920;DHT22;36160;53.370;-6.196;2022-11-20T03:42:26;6.60;99.90
35920;DHT22;36160;53.370;-6.196;2022-11-20T03:45:10;6.60;99.90
35920;DHT22;36160;53.370;-6.196;2022-11-20T03:47:36;6.50;99.90
35920;DHT22;36160;53.370;-6.196;2022-11-20T03:50:02;6.50;99.90
35920;DHT22;36160;53.370;-6.196;2022-11-20T03:52:28;6.50;99.90
35920;DHT22;36160;53.370;-6.196;2022-11-20T03:54:53;6.50;99.90
35920;DHT22;36160;53.370;-6.196;2022-11-20T03:57:19;6.50;99.90
35920;DHT22;36160;53.370;-6.196;2022-11-20T03:59:46;6.40;99.90
35920;DHT22;36160;53.370;-6.196;2022-11-20T04:02:12;6.50;99.90
35920;DHT22;36160;53.370;-6.196;2022-11-20T04:04:37;6.40;99.90
35920;DHT22;36160;53.370;-6.196;2022-11-20T04:07:03;6.40;99.90
35920;DHT22;36160;53.370;-6.196;2022-11-20T04:09:28;6.40;99.90
35920;DHT22;36160;53.370;-6.196;2022-11-20T04:11:54;6.40;99.90
35920;DHT22;36160;53.370;-6.196;2022-11-20T04:14:20;6.50;99.90
35920;DHT22;36160;53.370;-6.196;2022-11-20T04:16:45;6.50;99.90
35920;DHT22;36160;53.370;-6.196;2022-11-20T04:19:14;6.60;99.90
35920;DHT22;36160;53.370;-6.196;2022-11-20T04:21:41;6.60;99.90
35920;DHT22;36160;53.370;-6.196;2022-11-20T04:24:07;6.70;99.90
35920;DHT22;36160;53.370;-6.196;2022-11-20T04:26:33;6.70;99.90
35920;DHT22;36160;53.370;-6.196;2022-11-20T04:28:59;6.80;99.90
35920;DHT22;36160;53.370;-6.196;2022-11-20T04:31:29;6.70;99.90
35920;DHT22;36160;53.370;-6.196;2022-11-20T04:33:55;6.70;99.90
35920;DHT22;36160;53.370;-6.196;2022-11-20T04:36:25;6.70;99.90
35920;DHT22;36160;53.370;-6.196;2022-11-20T04:38:56;6.70;99.90
35920;DHT22;36160;53.370;-6.196;2022-11-20T04:41:27;6.70;99.90
35920;DHT22;36160;53.370;-6.196;2022-11-20T04:43:55;6.70;99.90
35920;DHT22;36160;53.370;-6.196;2022-11-20T04:46:33;6.70;99.90
35920;DHT22;36160;53.370;-6.196;2022-11-20T04:48:59;6.70;99.90
35920;DHT22;36160;53.370;-6.196;2022-11-20T04:51:25;6.70;99.90
35920;DHT22;36160;53.370;-6.196;2022-11-20T04:53:51;6.60;99.90
35920;DHT22;36160;53.370;-6.196;2022-11-20T04:56:17;6.70;99.90
35920;DHT22;36160;53.370;-6.196;2022-11-20T04:58:43;6.70;99.90
35920;DHT22;36160;53.370;-6.196;2022-11-20T05:01:17;6.60;99.90
35920;DHT22;36160;53.370;-6.196;2022-11-20T05:03:43;6.60;99.90
35920;DHT22;36160;53.370;-6.196;2022-11-20T05:06:11;6.60;99.90
35920;DHT22;36160;53.370;-6.196;2022-11-20T05:08:37;6.70;99.90
35920;DHT22;36160;53.370;-6.196;2022-11-20T05:11:11;6.70;99.90
35920;DHT22;36160;53.370;-6.196;2022-11-20T05:13:38;6.70;99.90
35920;DHT22;36160;53.370;-6.196;2022-11-20T05:16:09;6.80;99.90
35920;DHT22;36160;53.370;-6.196;2022-11-20T05:18:35;6.80;99.90
35920;DHT22;36160;53.370;-6.196;2022-11-20T05:21:01;6.70;99.90
35920;DHT22;36160;53.370;-6.196;2022-11-20T05:23:27;6.80;99.90
35920;DHT22;36160;53.370;-6.196;2022-11-20T05:25:55;6.70;99.90
35920;DHT22;36160;53.370;-6.196;2022-11-20T05:28:21;6.70;99.90
35920;DHT22;36160;53.370;-6.196;2022-11-20T05:30:47;6.70;99.90
35920;DHT22;36160;53.370;-6.196;2022-11-20T05:33:13;6.80;99.90
35920;DHT22;36160;53.370;-6.196;2022-11-20T05:35:39;6.70;99.90
35920;DHT22;36160;53.370;-6.196;2022-11-20T05:38:04;6.70;99.90
35920;DHT22;36160;53.370;-6.196;2022-11-20T05:40:30;6.60;99.90
35920;DHT22;36160;53.370;-6.196;2022-11-20T05:42:56;6.60;99.90
35920;DHT22;36160;53.370;-6.196;2022-11-20T05:45:21;6.70;99.90
35920;DHT22;36160;53.370;-6.196;2022-11-20T05:47:47;6.70;99.90
35920;DHT22;36160;53.370;-6.196;2022-11-20T05:50:13;6.60;99.90
35920;DHT22;36160;53.370;-6.196;2022-11-20T05:52:40;6.60;99.90
35920;DHT22;36160;53.370;-6.196;2022-11-20T05:55:06;6.70;99.90
35920;DHT22;36160;53.370;-6.196;2022-11-20T05:57:32;6.60;99.90
35920;DHT22;36160;53.370;-6.196;2022-11-20T05:59:58;6.70;99.90
35920;DHT22;36160;53.370;-6.196;2022-11-20T06:02:23;6.70;99.90
35920;DHT22;36160;53.370;-6.196;2022-11-20T06:04:49;6.60;99.90
35920;DHT22;36160;53.370;-6.196;2022-11-20T06:07:15;6.60;99.90
35920;DHT22;36160;53.370;-6.196;2022-11-20T06:09:41;6.60;99.90
35920;DHT22;36160;53.370;-6.196;2022-11-20T06:12:06;6.50;99.90
35920;DHT22;36160;53.370;-6.196;2022-11-20T06:14:33;6.50;99.90
35920;DHT22;36160;53.370;-6.196;2022-11-20T06:16:59;6.60;99.90
35920;DHT22;36160;53.370;-6.196;2022-11-20T06:19:24;6.60;99.90
35920;DHT22;36160;53.370;-6.196;2022-11-20T06:21:51;6.60;99.90
35920;DHT22;36160;53.370;-6.196;2022-11-20T06:24:17;6.60;99.90
35920;DHT22;36160;53.370;-6.196;2022-11-20T06:26:43;6.60;99.90
35920;DHT22;36160;53.370;-6.196;2022-11-20T06:29:09;6.60;99.90
35920;DHT22;36160;53.370;-6.196;2022-11-20T06:31:35;6.60;99.90
35920;DHT22;36160;53.370;-6.196;2022-11-20T06:34:04;6.50;99.90
35920;DHT22;36160;53.370;-6.196;2022-11-20T06:36:32;6.60;99.90
35920;DHT22;36160;53.370;-6.196;2022-11-20T06:38:58;6.60;99.90
35920;DHT22;36160;53.370;-6.196;2022-11-20T06:41:24;6.60;99.90
35920;DHT22;36160;53.370;-6.196;2022-11-20T06:43:50;6.60;99.90
35920;DHT22;36160;53.370;-6.196;2022-11-20T06:46:18;6.60;99.90
35920;DHT22;36160;53.370;-6.196;2022-11-20T06:48:45;6.60;99.90
35920;DHT22;36160;53.370;-6.196;2022-11-20T06:51:11;6.60;99.90
35920;DHT22;36160;53.370;-6.196;2022-11-20T06:53:37;6.60;99.90
35920;DHT22;36160;53.370;-6.196;2022-11-20T06:56:04;6.70;99.90
35920;DHT22;36160;53.370;-6.196;2022-11-20T06:58:31;6.70;99.90
35920;DHT22;36160;53.370;-6.196;2022-11-20T07:01:03;6.70;99.90
35920;DHT22;36160;53.370;-6.196;2022-11-20T07:03:29;6.70;99.90
35920;DHT22;36160;53.370;-6.196;2022-11-20T07:05:56;6.80;99.90
35920;DHT22;36160;53.370;-6.196;2022-11-20T07:08:22;6.70;99.90
35920;DHT22;36160;53.370;-6.196;2022-11-20T07:10:48;6.70;99.90
35920;DHT22;36160;53.370;-6.196;2022-11-20T07:13:14;6.70;99.90
35920;DHT22;36160;53.370;-6.196;2022-11-20T07:15:39;6.70;99.90
35920;DHT22;36160;53.370;-6.196;2022-11-20T07:18:05;6.70;99.90
35920;DHT22;36160;53.370;-6.196;2022-11-20T07:20:31;6.80;99.90
35920;DHT22;36160;53.370;-6.196;2022-11-20T07:22:58;6.80;99.90
35920;DHT22;36160;53.370;-6.196;2022-11-20T07:25:25;6.80;99.90
35920;DHT22;36160;53.370;-6.196;2022-11-20T07:27:51;6.70;99.90
35920;DHT22;36160;53.370;-6.196;2022-11-20T07:30:18;6.70;99.90
35920;DHT22;36160;53.370;-6.196;2022-11-20T07:32:47;6.70;99.90
35920;DHT22;36160;53.370;-6.196;2022-11-20T07:35:16;6.70;99.90
35920;DHT22;36160;53.370;-6.196;2022-11-20T07:37:41;6.80;99.90
35920;DHT22;36160;53.370;-6.196;2022-11-20T07:40:07;6.80;99.90
35920;DHT22;36160;53.370;-6.196;2022-11-20T07:42:33;6.80;99.90
35920;DHT22;36160;53.370;-6.196;2022-11-20T07:44:59;6.80;99.90
35920;DHT22;36160;53.370;-6.196;2022-11-20T07:47:25;6.80;99.90
35920;DHT22;36160;53.370;-6.196;2022-11-20T07:49:50;6.80;99.90
35920;DHT22;36160;53.370;-6.196;2022-11-20T07:52:16;6.90;99.90
35920;DHT22;36160;53.370;-6.196;2022-11-20T07:54:42;7.00;99.90
35920;DHT22;36160;53.370;-6.196;2022-11-20T07:57:07;7.00;99.90
35920;DHT22;36160;53.370;-6.196;2022-11-20T07:59:33;7.00;99.90
35920;DHT22;36160;53.370;-6.196;2022-11-20T08:01:59;7.10;99.90
35920;DHT22;36160;53.370;-6.196;2022-11-20T08:04:24;7.20;99.80
35920;DHT22;36160;53.370;-6.196;2022-11-20T08:06:52;7.30;95.70
35920;DHT22;36160;53.370;-6.196;2022-11-20T08:09:17;7.40;93.10
35920;DHT22;36160;53.370;-6.196;2022-11-20T08:11:43;7.40;89.20
35920;DHT22;36160;53.370;-6.196;2022-11-20T08:14:27;7.50;80.20
35920;DHT22;36160;53.370;-6.196;2022-11-20T08:16:53;7.50;82.40
35920;DHT22;36160;53.370;-6.196;2022-11-20T08:19:19;7.50;83.10
35920;DHT22;36160;53.370;-6.196;2022-11-20T08:21:45;7.50;89.30
35920;DHT22;36160;53.370;-6.196;2022-11-20T08:24:11;7.50;91.50
35920;DHT22;36160;53.370;-6.196;2022-11-20T08:26:38;7.50;93.80
35920;DHT22;36160;53.370;-6.196;2022-11-20T08:29:04;7.50;93.50
35920;DHT22;36160;53.370;-6.196;2022-11-20T08:31:31;7.50;93.10
35920;DHT22;36160;53.370;-6.196;2022-11-20T08:33:57;7.50;94.40
35920;DHT22;36160;53.370;-6.196;2022-11-20T08:36:24;7.50;94.60
35920;DHT22;36160;53.370;-6.196;2022-11-20T08:38:51;7.50;94.20
35920;DHT22;36160;53.370;-6.196;2022-11-20T08:41:17;7.50;92.40
35920;DHT22;36160;53.370;-6.196;2022-11-20T08:43:55;7.60;90.40
35920;DHT22;36160;53.370;-6.196;2022-11-20T08:46:21;7.70;82.20
35920;DHT22;36160;53.370;-6.196;2022-11-20T08:48:47;7.70;84.40
35920;DHT22;36160;53.370;-6.196;2022-11-20T08:51:14;7.70;84.80
35920;DHT22;36160;53.370;-6.196;2022-11-20T08:53:40;7.70;79.70
35920;DHT22;36160;53.370;-6.196;2022-11-20T08:56:06;7.70;78.50
35920;DHT22;36160;53.370;-6.196;2022-11-20T08:58:32;7.70;80.00
35920;DHT22;36160;53.370;-6.196;2022-11-20T09:00:57;7.70;76.40
35920;DHT22;36160;53.370;-6.196;2022-11-20T09:03:23;7.70;77.10
35920;DHT22;36160;53.370;-6.196;2022-11-20T09:05:49;7.70;75.20
35920;DHT22;36160;53.370;-6.196;2022-11-20T09:08:14;7.80;72.50
35920;DHT22;36160;53.370;-6.196;2022-11-20T09:10:40;7.70;78.60
35920;DHT22;36160;53.370;-6.196;2022-11-20T09:13:06;7.70;73.00
35920;DHT22;36160;53.370;-6.196;2022-11-20T09:15:32;7.70;70.90
35920;DHT22;36160;53.370;-6.196;2022-11-20T09:18:01;7.70;71.40
35920;DHT22;36160;53.370;-6.196;2022-11-20T09:20:28;7.80;68.90
35920;DHT22;36160;53.370;-6.196;2022-11-20T09:22:55;7.80;66.40
35920;DHT22;36160;53.370;-6.196;2022-11-20T09:25:21;7.80;65.60
35920;DHT22;36160;53.370;-6.196;2022-11-20T09:27:47;7.70;61.80
35920;DHT22;36160;53.370;-6.196;2022-11-20T09:30:15;7.80;58.20
35920;DHT22;36160;53.370;-6.196;2022-11-20T09:32:42;7.80;56.50
35920;DHT22;36160;53.370;-6.196;2022-11-20T09:35:08;7.80;56.60
35920;DHT22;36160;53.370;-6.196;2022-11-20T09:37:34;7.90;53.90
35920;DHT22;36160;53.370;-6.196;2022-11-20T09:40:00;7.90;57.80
35920;DHT22;36160;53.370;-6.196;2022-11-20T09:45:23;7.90;55.30
35920;DHT22;36160;53.370;-6.196;2022-11-20T09:50:45;8.00;55.90
35920;DHT22;36160;53.370;-6.196;2022-11-20T09:55:50;8.10;56.90
35920;DHT22;36160;53.370;-6.196;2022-11-20T09:58:43;8.10;52.80
35920;DHT22;36160;53.370;-6.196;2022-11-20T10:01:18;8.10;48.70
35920;DHT22;36160;53.370;-6.196;2022-11-20T10:03:52;8.20;48.60
35920;DHT22;36160;53.370;-6.196;2022-11-20T10:06:24;8.20;45.60
35920;DHT22;36160;53.370;-6.196;2022-11-20T10:09:16;8.20;44.10
35920;DHT22;36160;53.370;-6.196;2022-11-20T10:14:33;8.20;46.00
35920;DHT22;36160;53.370;-6.196;2022-11-20T10:25:24;8.20;51.80
35920;DHT22;36160;53.370;-6.196;2022-11-20T10:30:42;8.20;50.30
35920;DHT22;36160;53.370;-6.196;2022-11-20T10:35:42;8.20;51.00
35920;DHT22;36160;53.370;-6.196;2022-11-20T10:38:23;8.20;50.40
35920;DHT22;36160;53.370;-6.196;2022-11-20T10:41:01;8.20;54.30
35920;DHT22;36160;53.370;-6.196;2022-11-20T10:43:48;8.20;63.40
35920;DHT22;36160;53.370;-6.196;2022-11-20T10:46:19;8.10;53.20
35920;DHT22;36160;53.370;-6.196;2022-11-20T10:48:48;8.10;63.40
35920;DHT22;36160;53.370;-6.196;2022-11-20T10:51:37;8.10;62.10
35920;DHT22;36160;53.370;-6.196;2022-11-20T10:57:08;8.00;46.50
35920;DHT22;36160;53.370;-6.196;2022-11-20T11:02:24;8.10;49.30
35920;DHT22;36160;53.370;-6.196;2022-11-20T11:04:54;8.10;54.00
35920;DHT22;36160;53.370;-6.196;2022-11-20T11:07:38;8.10;50.20
35920;DHT22;36160;53.370;-6.196;2022-11-20T11:12:45;8.10;53.40
35920;DHT22;36160;53.370;-6.196;2022-11-20T11:15:23;8.10;52.90
35920;DHT22;36160;53.370;-6.196;2022-11-20T11:17:49;8.20;57.30
35920;DHT22;36160;53.370;-6.196;2022-11-20T11:20:21;8.30;59.80
35920;DHT22;36160;53.370;-6.196;2022-11-20T11:22:50;8.30;60.50
35920;DHT22;36160;53.370;-6.196;2022-11-20T11:25:36;8.30;59.90
35920;DHT22;36160;53.370;-6.196;2022-11-20T11:30:41;8.40;44.80
35920;DHT22;36160;53.370;-6.196;2022-11-20T11:33:22;8.30;47.10
35920;DHT22;36160;53.370;-6.196;2022-11-20T11:35:53;8.30;31.30
35920;DHT22;36160;53.370;-6.196;2022-11-20T11:38:42;8.30;24.60
35920;DHT22;36160;53.370;-6.196;2022-11-20T11:41:26;8.30;14.70
35920;DHT22;36160;53.370;-6.196;2022-11-20T11:43:59;8.40;21.50
35920;DHT22;36160;53.370;-6.196;2022-11-20T11:46:52;8.30;21.80
35920;DHT22;36160;53.370;-6.196;2022-11-20T11:49:19;8.20;23.40
35920;DHT22;36160;53.370;-6.196;2022-11-20T11:54:55;8.20;32.30
35920;DHT22;36160;53.370;-6.196;2022-11-20T12:00:12;8.20;36.50
35920;DHT22;36160;53.370;-6.196;2022-11-20T12:05:27;8.20;50.00
35920;DHT22;36160;53.370;-6.196;2022-11-20T12:13:58;8.10;84.80
35920;DHT22;36160;53.370;-6.196;2022-11-20T12:16:28;8.10;90.00
35920;DHT22;36160;53.370;-6.196;2022-11-20T12:18:55;8.10;93.00
35920;DHT22;36160;53.370;-6.196;2022-11-20T12:40:32;8.40;54.30
35920;DHT22;36160;53.370;-6.196;2022-11-20T12:43:23;8.50;47.40
35920;DHT22;36160;53.370;-6.196;2022-11-20T12:46:43;8.60;46.90
35920;DHT22;36160;53.370;-6.196;2022-11-20T12:58:11;8.70;28.50
35920;DHT22;36160;53.370;-6.196;2022-11-20T13:00:43;8.70;31.30
35920;DHT22;36160;53.370;-6.196;2022-11-20T13:06:19;8.90;26.00
35920;DHT22;36160;53.370;-6.196;2022-11-20T13:08:54;8.90;18.30
35920;DHT22;36160;53.370;-6.196;2022-11-20T13:19:12;9.00;9.00
35920;DHT22;36160;53.370;-6.196;2022-11-20T13:21:49;9.10;1.00
35920;DHT22;36160;53.370;-6.196;2022-11-20T13:29:35;9.10;1.00
35920;DHT22;36160;53.370;-6.196;2022-11-20T13:32:16;9.20;1.00
35920;DHT22;36160;53.370;-6.196;2022-11-20T13:35:01;9.10;1.00
35920;DHT22;36160;53.370;-6.196;2022-11-20T13:37:34;9.20;1.00
35920;DHT22;36160;53.370;-6.196;2022-11-20T13:45:30;9.20;1.00
35920;DHT22;36160;53.370;-6.196;2022-11-20T13:47:58;9.20;1.00
35920;DHT22;36160;53.370;-6.196;2022-11-20T14:00:58;9.20;1.00
35920;DHT22;36160;53.370;-6.196;2022-11-20T14:03:29;9.20;99.90
35920;DHT22;36160;53.370;-6.196;2022-11-20T14:06:02;9.20;99.90
35920;DHT22;36160;53.370;-6.196;2022-11-20T14:11:16;9.10;99.90
35920;DHT22;36160;53.370;-6.196;2022-11-20T14:16:33;9.20;99.90
35920;DHT22;36160;53.370;-6.196;2022-11-20T14:21:54;9.20;99.90
35920;DHT22;36160;53.370;-6.196;2022-11-20T14:24:31;9.20;99.90
35920;DHT22;36160;53.370;-6.196;2022-11-20T14:26:56;9.20;99.90
35920;DHT22;36160;53.370;-6.196;2022-11-20T14:29:28;9.10;99.90
35920;DHT22;36160;53.370;-6.196;2022-11-20T14:31:55;9.20;99.90
35920;DHT22;36160;53.370;-6.196;2022-11-20T14:34:24;9.10;99.90
35920;DHT22;36160;53.370;-6.196;2022-11-20T14:36:57;9.10;99.90
35920;DHT22;36160;53.370;-6.196;2022-11-20T14:39:36;9.00;99.90
35920;DHT22;36160;53.370;-6.196;2022-11-20T14:42:10;9.00;99.90
35920;DHT22;36160;53.370;-6.196;2022-11-20T14:44:39;8.90;99.90
35920;DHT22;36160;53.370;-6.196;2022-11-20T14:47:06;8.90;99.90
35920;DHT22;36160;53.370;-6.196;2022-11-20T14:49:32;8.90;99.90
35920;DHT22;36160;53.370;-6.196;2022-11-20T14:52:09;8.90;99.90
35920;DHT22;36160;53.370;-6.196;2022-11-20T14:54:46;8.80;99.90
35920;DHT22;36160;53.370;-6.196;2022-11-20T14:59:50;8.80;1.00
35920;DHT22;36160;53.370;-6.196;2022-11-20T15:02:16;8.80;1.00
35920;DHT22;36160;53.370;-6.196;2022-11-20T15:04:59;8.70;1.00
35920;DHT22;36160;53.370;-6.196;2022-11-20T15:07:27;8.70;1.00
35920;DHT22;36160;53.370;-6.196;2022-11-20T15:10:08;8.70;1.00
35920;DHT22;36160;53.370;-6.196;2022-11-20T15:12:37;8.70;1.00
35920;DHT22;36160;53.370;-6.196;2022-11-20T15:15:04;8.70;1.00
35920;DHT22;36160;53.370;-6.196;2022-11-20T15:17:32;8.60;1.00
35920;DHT22;36160;53.370;-6.196;2022-11-20T15:20:11;8.60;1.00
35920;DHT22;36160;53.370;-6.196;2022-11-20T15:22:38;8.60;1.00
35920;DHT22;36160;53.370;-6.196;2022-11-20T15:25:15;8.50;1.00
35920;DHT22;36160;53.370;-6.196;2022-11-20T15:27:42;8.50;1.00
35920;DHT22;36160;53.370;-6.196;2022-11-20T15:30:19;8.50;1.00
35920;DHT22;36160;53.370;-6.196;2022-11-20T15:32:46;8.40;1.00
35920;DHT22;36160;53.370;-6.196;2022-11-20T15:35:12;8.30;1.00
35920;DHT22;36160;53.370;-6.196;2022-11-20T15:37:39;8.30;1.00
35920;DHT22;36160;53.370;-6.196;2022-11-20T15:40:06;8.30;1.00
35920;DHT22;36160;53.370;-6.196;2022-11-20T15:42:32;8.20;1.00
35920;DHT22;36160;53.370;-6.196;2022-11-20T15:44:58;8.10;2.20
35920;DHT22;36160;53.370;-6.196;2022-11-20T15:47:32;8.10;5.60
35920;DHT22;36160;53.370;-6.196;2022-11-20T15:49:58;8.10;4.70
35920;DHT22;36160;53.370;-6.196;2022-11-20T15:52:24;8.10;8.90
35920;DHT22;36160;53.370;-6.196;2022-11-20T15:54:50;8.00;8.60
35920;DHT22;36160;53.370;-6.196;2022-11-20T15:57:15;8.00;14.10
35920;DHT22;36160;53.370;-6.196;2022-11-20T15:59:41;7.90;9.70
35920;DHT22;36160;53.370;-6.196;2022-11-20T16:02:11;7.90;7.50
35920;DHT22;36160;53.370;-6.196;2022-11-20T16:04:37;7.90;6.20
35920;DHT22;36160;53.370;-6.196;2022-11-20T16:07:03;7.80;10.70
35920;DHT22;36160;53.370;-6.196;2022-11-20T16:09:28;7.80;2.60
35920;DHT22;36160;53.370;-6.196;2022-11-20T16:11:54;7.70;3.80
35920;DHT22;36160;53.370;-6.196;2022-11-20T16:14:20;7.70;6.00
35920;DHT22;36160;53.370;-6.196;2022-11-20T16:17:04;7.70;7.70
35920;DHT22;36160;53.370;-6.196;2022-11-20T16:19:30;7.70;5.10
35920;DHT22;36160;53.370;-6.196;2022-11-20T16:21:57;7.60;6.00
35920;DHT22;36160;53.370;-6.196;2022-11-20T16:24:23;7.60;10.00
35920;DHT22;36160;53.370;-6.196;2022-11-20T16:26:48;7.50;16.40
35920;DHT22;36160;53.370;-6.196;2022-11-20T16:29:14;7.50;20.30
35920;DHT22;36160;53.370;-6.196;2022-11-20T16:31:40;7.50;23.10
35920;DHT22;36160;53.370;-6.196;2022-11-20T16:34:07;7.50;24.80
35920;DHT22;36160;53.370;-6.196;2022-11-20T16:36:33;7.40;31.60
35920;DHT22;36160;53.370;-6.196;2022-11-20T16:39:00;7.40;33.70
35920;DHT22;36160;53.370;-6.196;2022-11-20T16:41:29;7.40;36.90
35920;DHT22;36160;53.370;-6.196;2022-11-20T16:43:56;7.40;39.60
35920;DHT22;36160;53.370;-6.196;2022-11-20T16:46:24;7.30;43.80
35920;DHT22;36160;53.370;-6.196;2022-11-20T16:48:56;7.20;47.70
35920;DHT22;36160;53.370;-6.196;2022-11-20T16:51:22;7.30;47.60
35920;DHT22;36160;53.370;-6.196;2022-11-20T16:53:48;7.30;51.90
35920;DHT22;36160;53.370;-6.196;2022-11-20T16:56:18;7.20;53.90
35920;DHT22;36160;53.370;-6.196;2022-11-20T16:58:45;7.30;52.50
35920;DHT22;36160;53.370;-6.196;2022-11-20T17:01:13;7.30;56.50
35920;DHT22;36160;53.370;-6.196;2022-11-20T17:03:40;7.30;51.00
35920;DHT22;36160;53.370;-6.196;2022-11-20T17:08:38;7.30;54.00
35920;DHT22;36160;53.370;-6.196;2022-11-20T17:11:08;7.30;55.20
35920;DHT22;36160;53.370;-6.196;2022-11-20T17:13:35;7.30;56.20
35920;DHT22;36160;53.370;-6.196;2022-11-20T17:16:07;7.20;57.50
35920;DHT22;36160;53.370;-6.196;2022-11-20T17:18:33;7.30;61.20
35920;DHT22;36160;53.370;-6.196;2022-11-20T17:21:00;7.20;62.40
35920;DHT22;36160;53.370;-6.196;2022-11-20T17:23:30;7.20;63.20
35920;DHT22;36160;53.370;-6.196;2022-11-20T17:26:09;7.20;65.50
35920;DHT22;36160;53.370;-6.196;2022-11-20T17:28:36;7.20;65.80
35920;DHT22;36160;53.370;-6.196;2022-11-20T17:31:08;7.20;68.80
35920;DHT22;36160;53.370;-6.196;2022-11-20T17:33:36;7.10;69.90
35920;DHT22;36160;53.370;-6.196;2022-11-20T17:36:03;7.10;72.70
35920;DHT22;36160;53.370;-6.196;2022-11-20T17:38:29;7.10;75.70
35920;DHT22;36160;53.370;-6.196;2022-11-20T17:41:19;7.10;70.60
35920;DHT22;36160;53.370;-6.196;2022-11-20T17:43:46;7.10;74.70
35920;DHT22;36160;53.370;-6.196;2022-11-20T17:46:18;7.10;75.50
35920;DHT22;36160;53.370;-6.196;2022-11-20T17:48:44;7.10;76.90
35920;DHT22;36160;53.370;-6.196;2022-11-20T17:51:12;7.00;75.80
35920;DHT22;36160;53.370;-6.196;2022-11-20T17:53:40;7.10;76.40